sensor_id;sensor_type;location;lat;lon;timestamp;P1;durP1;ratioP1;P2;durP2;ratioP2
7575;SDS011;3829;50.798;4.358;2022-09-03T00:02:21;9.20;;;4.20;;
7575;SDS011;3829;50.798;4.358;2022-09-03T00:05:04;4.53;;;3.83;;
7575;SDS011;3829;50.798;4.358;2022-09-03T00:08:05;6.20;;;4.63;;
7575;SDS011;3829;50.798;4.358;2022-09-03T00:10:55;9.40;;;4.47;;
7575;SDS011;3829;50.798;4.358;2022-09-03T00:13:35;4.53;;;4.10;;
7575;SDS011;3829;50.798;4.358;2022-09-03T00:16:05;5.67;;;4.43;;
7575;SDS011;3829;50.798;4.358;2022-09-03T00:18:34;7.40;;;4.60;;
7575;SDS011;3829;50.798;4.358;2022-09-03T00:21:13;4.93;;;4.53;;
7575;SDS011;3829;50.798;4.358;2022-09-03T00:23:43;5.30;;;4.47;;
7575;SDS011;3829;50.798;4.358;2022-09-03T00:28:48;5.23;;;4.60;;
7575;SDS011;3829;50.798;4.358;2022-09-03T00:31:24;5.10;;;4.10;;
7575;SDS011;3829;50.798;4.358;2022-09-03T00:34:15;6.10;;;4.37;;
7575;SDS011;3829;50.798;4.358;2022-09-03T00:36:54;8.47;;;4.90;;
7575;SDS011;3829;50.798;4.358;2022-09-03T00:39:22;4.97;;;4.40;;
7575;SDS011;3829;50.798;4.358;2022-09-03T00:44:39;4.57;;;3.87;;
7575;SDS011;3829;50.798;4.358;2022-09-03T00:47:34;6.43;;;4.10;;
7575;SDS011;3829;50.798;4.358;2022-09-03T00:56:18;6.77;;;3.70;;
7575;SDS011;3829;50.798;4.358;2022-09-03T00:59:04;9.10;;;4.30;;
7575;SDS011;3829;50.798;4.358;2022-09-03T01:07:26;4.37;;;3.83;;
7575;SDS011;3829;50.798;4.358;2022-09-03T01:10:34;5.30;;;3.60;;
7575;SDS011;3829;50.798;4.358;2022-09-03T01:13:15;4.10;;;3.57;;
7575;SDS011;3829;50.798;4.358;2022-09-03T01:21:33;6.00;;;3.93;;
7575;SDS011;3829;50.798;4.358;2022-09-03T01:24:22;10.33;;;3.47;;
7575;SDS011;3829;50.798;4.358;2022-09-03T01:30:07;4.43;;;3.83;;
7575;SDS011;3829;50.798;4.358;2022-09-03T01:32:42;7.37;;;4.00;;
7575;SDS011;3829;50.798;4.358;2022-09-03T01:38:36;5.70;;;3.80;;
7575;SDS011;3829;50.798;4.358;2022-09-03T01:44:24;6.57;;;4.20;;
7575;SDS011;3829;50.798;4.358;2022-09-03T01:47:04;5.10;;;4.00;;
7575;SDS011;3829;50.798;4.358;2022-09-03T01:50:24;7.17;;;3.63;;
7575;SDS011;3829;50.798;4.358;2022-09-03T01:58:39;6.07;;;3.67;;
7575;SDS011;3829;50.798;4.358;2022-09-03T02:01:17;4.97;;;4.13;;
7575;SDS011;3829;50.798;4.358;2022-09-03T02:03:48;4.63;;;4.23;;
7575;SDS011;3829;50.798;4.358;2022-09-03T02:06:15;4.10;;;3.63;;
7575;SDS011;3829;50.798;4.358;2022-09-03T02:08:44;8.17;;;4.13;;
7575;SDS011;3829;50.798;4.358;2022-09-03T02:11:10;7.67;;;4.27;;
7575;SDS011;3829;50.798;4.358;2022-09-03T02:16:10;6.83;;;4.23;;
7575;SDS011;3829;50.798;4.358;2022-09-03T02:18:40;6.10;;;4.10;;
7575;SDS011;3829;50.798;4.358;2022-09-03T02:21:10;9.00;;;4.70;;
7575;SDS011;3829;50.798;4.358;2022-09-03T02:23:38;7.40;;;5.40;;
7575;SDS011;3829;50.798;4.358;2022-09-03T02:26:04;6.53;;;4.70;;
7575;SDS011;3829;50.798;4.358;2022-09-03T02:28:32;9.30;;;4.87;;
7575;SDS011;3829;50.798;4.358;2022-09-03T02:30:58;8.37;;;4.33;;
7575;SDS011;3829;50.798;4.358;2022-09-03T02:33:24;5.87;;;4.90;;
7575;SDS011;3829;50.798;4.358;2022-09-03T02:35:50;7.17;;;4.70;;
7575;SDS011;3829;50.798;4.358;2022-09-03T02:38:18;4.43;;;4.03;;
7575;SDS011;3829;50.798;4.358;2022-09-03T02:40:45;6.93;;;4.87;;
7575;SDS011;3829;50.798;4.358;2022-09-03T02:43:16;7.23;;;4.87;;
7575;SDS011;3829;50.798;4.358;2022-09-03T02:45:46;5.53;;;4.63;;
7575;SDS011;3829;50.798;4.358;2022-09-03T02:48:15;6.70;;;5.27;;
7575;SDS011;3829;50.798;4.358;2022-09-03T02:50:45;7.87;;;4.70;;
7575;SDS011;3829;50.798;4.358;2022-09-03T02:53:10;8.03;;;4.73;;
7575;SDS011;3829;50.798;4.358;2022-09-03T02:55:36;5.87;;;4.83;;
7575;SDS011;3829;50.798;4.358;2022-09-03T02:58:02;8.93;;;4.93;;
7575;SDS011;3829;50.798;4.358;2022-09-03T03:00:29;5.93;;;5.30;;
7575;SDS011;3829;50.798;4.358;2022-09-03T03:02:55;9.57;;;5.63;;
7575;SDS011;3829;50.798;4.358;2022-09-03T03:05:22;8.17;;;5.50;;
7575;SDS011;3829;50.798;4.358;2022-09-03T03:07:53;9.83;;;5.53;;
7575;SDS011;3829;50.798;4.358;2022-09-03T03:10:20;6.53;;;5.80;;
7575;SDS011;3829;50.798;4.358;2022-09-03T03:12:46;7.13;;;5.93;;
7575;SDS011;3829;50.798;4.358;2022-09-03T03:15:11;8.73;;;6.13;;
7575;SDS011;3829;50.798;4.358;2022-09-03T03:17:37;8.57;;;5.80;;
7575;SDS011;3829;50.798;4.358;2022-09-03T03:20:02;7.60;;;5.50;;
7575;SDS011;3829;50.798;4.358;2022-09-03T03:22:28;7.20;;;6.07;;
7575;SDS011;3829;50.798;4.358;2022-09-03T03:24:54;7.53;;;6.17;;
7575;SDS011;3829;50.798;4.358;2022-09-03T03:27:21;10.10;;;5.37;;
7575;SDS011;3829;50.798;4.358;2022-09-03T03:29:47;6.87;;;6.07;;
7575;SDS011;3829;50.798;4.358;2022-09-03T03:32:14;5.83;;;5.33;;
7575;SDS011;3829;50.798;4.358;2022-09-03T03:34:39;7.23;;;4.90;;
7575;SDS011;3829;50.798;4.358;2022-09-03T03:37:05;7.67;;;4.37;;
7575;SDS011;3829;50.798;4.358;2022-09-03T03:39:31;6.80;;;4.40;;
7575;SDS011;3829;50.798;4.358;2022-09-03T03:41:56;7.13;;;4.60;;
7575;SDS011;3829;50.798;4.358;2022-09-03T03:44:22;6.07;;;4.27;;
7575;SDS011;3829;50.798;4.358;2022-09-03T03:46:47;5.33;;;4.17;;
7575;SDS011;3829;50.798;4.358;2022-09-03T03:49:13;8.67;;;4.80;;
7575;SDS011;3829;50.798;4.358;2022-09-03T03:51:38;6.20;;;4.20;;
7575;SDS011;3829;50.798;4.358;2022-09-03T03:54:05;7.87;;;4.63;;
7575;SDS011;3829;50.798;4.358;2022-09-03T03:56:31;5.00;;;4.50;;
7575;SDS011;3829;50.798;4.358;2022-09-03T03:58:57;5.97;;;5.07;;
7575;SDS011;3829;50.798;4.358;2022-09-03T04:01:24;5.63;;;4.50;;
7575;SDS011;3829;50.798;4.358;2022-09-03T04:03:53;7.03;;;4.87;;
7575;SDS011;3829;50.798;4.358;2022-09-03T04:06:20;7.57;;;5.00;;
7575;SDS011;3829;50.798;4.358;2022-09-03T04:08:46;4.90;;;4.40;;
7575;SDS011;3829;50.798;4.358;2022-09-03T04:11:14;6.07;;;4.87;;
7575;SDS011;3829;50.798;4.358;2022-09-03T04:13:42;5.63;;;4.70;;
7575;SDS011;3829;50.798;4.358;2022-09-03T04:18:39;6.57;;;4.33;;
7575;SDS011;3829;50.798;4.358;2022-09-03T04:21:06;5.47;;;4.90;;
7575;SDS011;3829;50.798;4.358;2022-09-03T04:23:35;5.17;;;4.40;;
7575;SDS011;3829;50.798;4.358;2022-09-03T04:26:02;4.87;;;4.17;;
7575;SDS011;3829;50.798;4.358;2022-09-03T04:28:28;4.70;;;4.20;;
7575;SDS011;3829;50.798;4.358;2022-09-03T04:30:54;5.30;;;3.97;;
7575;SDS011;3829;50.798;4.358;2022-09-03T04:33:24;5.30;;;4.27;;
7575;SDS011;3829;50.798;4.358;2022-09-03T04:35:49;4.60;;;3.97;;
7575;SDS011;3829;50.798;4.358;2022-09-03T04:38:15;5.97;;;4.20;;
7575;SDS011;3829;50.798;4.358;2022-09-03T04:40:41;4.70;;;3.87;;
7575;SDS011;3829;50.798;4.358;2022-09-03T04:43:06;5.50;;;3.70;;
7575;SDS011;3829;50.798;4.358;2022-09-03T04:45:32;5.00;;;3.80;;
7575;SDS011;3829;50.798;4.358;2022-09-03T04:48:01;4.47;;;3.73;;
7575;SDS011;3829;50.798;4.358;2022-09-03T04:50:29;5.67;;;3.40;;
7575;SDS011;3829;50.798;4.358;2022-09-03T04:53:00;3.80;;;3.20;;
7575;SDS011;3829;50.798;4.358;2022-09-03T04:55:32;5.50;;;3.47;;
7575;SDS011;3829;50.798;4.358;2022-09-03T04:58:01;4.87;;;3.63;;
7575;SDS011;3829;50.798;4.358;2022-09-03T05:00:27;5.27;;;3.27;;
7575;SDS011;3829;50.798;4.358;2022-09-03T05:02:53;3.40;;;3.10;;
7575;SDS011;3829;50.798;4.358;2022-09-03T05:05:19;3.93;;;3.57;;
7575;SDS011;3829;50.798;4.358;2022-09-03T05:07:44;3.03;;;2.77;;
7575;SDS011;3829;50.798;4.358;2022-09-03T05:10:11;3.40;;;3.10;;
7575;SDS011;3829;50.798;4.358;2022-09-03T05:12:44;5.00;;;3.27;;
7575;SDS011;3829;50.798;4.358;2022-09-03T05:15:21;7.43;;;3.23;;
7575;SDS011;3829;50.798;4.358;2022-09-03T05:17:47;4.33;;;3.63;;
7575;SDS011;3829;50.798;4.358;2022-09-03T05:20:12;7.70;;;3.50;;
7575;SDS011;3829;50.798;4.358;2022-09-03T05:22:38;4.37;;;3.00;;
7575;SDS011;3829;50.798;4.358;2022-09-03T05:25:04;3.87;;;3.30;;
7575;SDS011;3829;50.798;4.358;2022-09-03T05:27:30;6.17;;;3.60;;
7575;SDS011;3829;50.798;4.358;2022-09-03T05:29:56;3.33;;;3.10;;
7575;SDS011;3829;50.798;4.358;2022-09-03T05:32:22;3.43;;;3.00;;
7575;SDS011;3829;50.798;4.358;2022-09-03T05:34:49;3.40;;;3.00;;
7575;SDS011;3829;50.798;4.358;2022-09-03T05:37:14;3.53;;;3.23;;
7575;SDS011;3829;50.798;4.358;2022-09-03T05:39:40;3.57;;;2.97;;
7575;SDS011;3829;50.798;4.358;2022-09-03T05:42:05;3.87;;;3.00;;
7575;SDS011;3829;50.798;4.358;2022-09-03T05:44:31;3.53;;;2.80;;
7575;SDS011;3829;50.798;4.358;2022-09-03T05:46:57;4.50;;;3.17;;
7575;SDS011;3829;50.798;4.358;2022-09-03T05:49:22;4.77;;;3.17;;
7575;SDS011;3829;50.798;4.358;2022-09-03T05:51:49;8.00;;;5.10;;
7575;SDS011;3829;50.798;4.358;2022-09-03T05:54:14;5.53;;;3.33;;
7575;SDS011;3829;50.798;4.358;2022-09-03T05:56:40;3.27;;;2.97;;
7575;SDS011;3829;50.798;4.358;2022-09-03T05:59:06;3.87;;;3.20;;
7575;SDS011;3829;50.798;4.358;2022-09-03T06:01:34;4.77;;;3.03;;
7575;SDS011;3829;50.798;4.358;2022-09-03T06:04:12;4.77;;;3.10;;
7575;SDS011;3829;50.798;4.358;2022-09-03T06:06:39;4.83;;;2.83;;
7575;SDS011;3829;50.798;4.358;2022-09-03T06:09:07;6.17;;;3.13;;
7575;SDS011;3829;50.798;4.358;2022-09-03T06:11:35;4.27;;;2.90;;
7575;SDS011;3829;50.798;4.358;2022-09-03T06:14:03;3.60;;;2.77;;
7575;SDS011;3829;50.798;4.358;2022-09-03T06:16:30;2.90;;;2.60;;
7575;SDS011;3829;50.798;4.358;2022-09-03T06:18:58;4.93;;;2.37;;
7575;SDS011;3829;50.798;4.358;2022-09-03T06:21:24;3.10;;;2.33;;
7575;SDS011;3829;50.798;4.358;2022-09-03T06:23:50;3.23;;;2.60;;
7575;SDS011;3829;50.798;4.358;2022-09-03T06:26:17;3.00;;;2.50;;
7575;SDS011;3829;50.798;4.358;2022-09-03T06:28:44;5.07;;;2.33;;
7575;SDS011;3829;50.798;4.358;2022-09-03T06:31:13;5.53;;;2.30;;
7575;SDS011;3829;50.798;4.358;2022-09-03T06:33:41;3.77;;;2.17;;
7575;SDS011;3829;50.798;4.358;2022-09-03T06:36:08;4.37;;;2.53;;
7575;SDS011;3829;50.798;4.358;2022-09-03T06:38:36;5.03;;;2.27;;
7575;SDS011;3829;50.798;4.358;2022-09-03T06:41:03;4.03;;;2.57;;
7575;SDS011;3829;50.798;4.358;2022-09-03T06:43:30;6.27;;;2.50;;
7575;SDS011;3829;50.798;4.358;2022-09-03T06:46:20;6.10;;;2.73;;
7575;SDS011;3829;50.798;4.358;2022-09-03T06:48:45;2.53;;;2.33;;
7575;SDS011;3829;50.798;4.358;2022-09-03T06:51:16;7.07;;;2.40;;
7575;SDS011;3829;50.798;4.358;2022-09-03T06:53:44;4.93;;;2.17;;
7575;SDS011;3829;50.798;4.358;2022-09-03T06:56:12;2.67;;;2.13;;
7575;SDS011;3829;50.798;4.358;2022-09-03T06:58:45;4.67;;;2.13;;
7575;SDS011;3829;50.798;4.358;2022-09-03T07:01:18;5.80;;;2.23;;
7575;SDS011;3829;50.798;4.358;2022-09-03T07:03:52;4.10;;;2.20;;
7575;SDS011;3829;50.798;4.358;2022-09-03T07:06:20;2.80;;;2.43;;
7575;SDS011;3829;50.798;4.358;2022-09-03T07:08:47;3.37;;;2.30;;
7575;SDS011;3829;50.798;4.358;2022-09-03T07:11:13;2.87;;;2.10;;
7575;SDS011;3829;50.798;4.358;2022-09-03T07:13:42;3.20;;;2.07;;
7575;SDS011;3829;50.798;4.358;2022-09-03T07:16:41;5.77;;;2.50;;
7575;SDS011;3829;50.798;4.358;2022-09-03T07:19:01;6.37;;;2.20;;
7575;SDS011;3829;50.798;4.358;2022-09-03T07:21:29;6.97;;;2.37;;
7575;SDS011;3829;50.798;4.358;2022-09-03T07:23:56;3.63;;;2.23;;
7575;SDS011;3829;50.798;4.358;2022-09-03T07:28:48;4.10;;;2.40;;
7575;SDS011;3829;50.798;4.358;2022-09-03T07:31:16;2.90;;;2.40;;
7575;SDS011;3829;50.798;4.358;2022-09-03T07:33:44;5.10;;;2.60;;
7575;SDS011;3829;50.798;4.358;2022-09-03T07:36:11;6.70;;;2.30;;
7575;SDS011;3829;50.798;4.358;2022-09-03T07:38:41;9.53;;;2.77;;
7575;SDS011;3829;50.798;4.358;2022-09-03T07:41:09;4.73;;;2.57;;
7575;SDS011;3829;50.798;4.358;2022-09-03T07:43:36;7.83;;;2.83;;
7575;SDS011;3829;50.798;4.358;2022-09-03T07:46:07;3.33;;;2.90;;
7575;SDS011;3829;50.798;4.358;2022-09-03T07:48:37;7.17;;;2.60;;
7575;SDS011;3829;50.798;4.358;2022-09-03T07:51:04;4.47;;;2.60;;
7575;SDS011;3829;50.798;4.358;2022-09-03T07:53:30;4.40;;;2.70;;
7575;SDS011;3829;50.798;4.358;2022-09-03T07:56:00;3.10;;;2.70;;
7575;SDS011;3829;50.798;4.358;2022-09-03T07:58:30;7.17;;;3.10;;
7575;SDS011;3829;50.798;4.358;2022-09-03T08:00:57;5.47;;;2.40;;
7575;SDS011;3829;50.798;4.358;2022-09-03T08:03:27;5.23;;;2.30;;
7575;SDS011;3829;50.798;4.358;2022-09-03T08:05:53;4.83;;;2.80;;
7575;SDS011;3829;50.798;4.358;2022-09-03T08:08:24;3.20;;;2.57;;
7575;SDS011;3829;50.798;4.358;2022-09-03T08:10:49;4.93;;;2.80;;
7575;SDS011;3829;50.798;4.358;2022-09-03T08:13:15;5.60;;;2.33;;
7575;SDS011;3829;50.798;4.358;2022-09-03T08:15:40;3.67;;;2.50;;
7575;SDS011;3829;50.798;4.358;2022-09-03T08:18:06;4.60;;;2.60;;
7575;SDS011;3829;50.798;4.358;2022-09-03T08:20:32;6.80;;;2.93;;
7575;SDS011;3829;50.798;4.358;2022-09-03T08:22:59;3.83;;;3.10;;
7575;SDS011;3829;50.798;4.358;2022-09-03T08:25:26;5.30;;;3.17;;
7575;SDS011;3829;50.798;4.358;2022-09-03T08:27:53;5.33;;;3.00;;
7575;SDS011;3829;50.798;4.358;2022-09-03T08:30:18;4.30;;;2.77;;
7575;SDS011;3829;50.798;4.358;2022-09-03T08:32:45;5.20;;;3.30;;
7575;SDS011;3829;50.798;4.358;2022-09-03T08:35:11;6.27;;;2.80;;
7575;SDS011;3829;50.798;4.358;2022-09-03T08:37:36;3.53;;;2.80;;
7575;SDS011;3829;50.798;4.358;2022-09-03T08:40:03;3.77;;;2.90;;
7575;SDS011;3829;50.798;4.358;2022-09-03T08:42:40;5.27;;;3.07;;
7575;SDS011;3829;50.798;4.358;2022-09-03T08:45:16;5.47;;;3.37;;
7575;SDS011;3829;50.798;4.358;2022-09-03T08:47:52;6.60;;;3.10;;
7575;SDS011;3829;50.798;4.358;2022-09-03T08:50:24;3.67;;;3.27;;
7575;SDS011;3829;50.798;4.358;2022-09-03T08:56:10;5.90;;;3.50;;
7575;SDS011;3829;50.798;4.358;2022-09-03T08:58:32;5.53;;;3.30;;
7575;SDS011;3829;50.798;4.358;2022-09-03T09:01:10;4.77;;;3.50;;
7575;SDS011;3829;50.798;4.358;2022-09-03T09:07:15;8.23;;;3.53;;
7575;SDS011;3829;50.798;4.358;2022-09-03T09:09:31;4.97;;;3.60;;
7575;SDS011;3829;50.798;4.358;2022-09-03T09:19:47;4.80;;;3.77;;
7575;SDS011;3829;50.798;4.358;2022-09-03T09:22:33;6.60;;;4.17;;
7575;SDS011;3829;50.798;4.358;2022-09-03T09:25:03;5.73;;;3.50;;
7575;SDS011;3829;50.798;4.358;2022-09-03T09:27:55;6.67;;;3.70;;
7575;SDS011;3829;50.798;4.358;2022-09-03T09:30:25;4.40;;;3.70;;
7575;SDS011;3829;50.798;4.358;2022-09-03T09:32:51;7.60;;;3.83;;
7575;SDS011;3829;50.798;4.358;2022-09-03T09:35:17;6.20;;;3.97;;
7575;SDS011;3829;50.798;4.358;2022-09-03T09:37:53;4.87;;;3.50;;
7575;SDS011;3829;50.798;4.358;2022-09-03T09:40:31;5.27;;;3.80;;
7575;SDS011;3829;50.798;4.358;2022-09-03T09:43:04;4.77;;;3.87;;
7575;SDS011;3829;50.798;4.358;2022-09-03T09:45:31;9.33;;;3.93;;
7575;SDS011;3829;50.798;4.358;2022-09-03T09:48:02;8.10;;;4.10;;
7575;SDS011;3829;50.798;4.358;2022-09-03T09:50:40;8.83;;;4.00;;
7575;SDS011;3829;50.798;4.358;2022-09-03T09:53:07;7.63;;;4.50;;
7575;SDS011;3829;50.798;4.358;2022-09-03T09:55:47;5.23;;;3.80;;
7575;SDS011;3829;50.798;4.358;2022-09-03T09:58:18;6.87;;;4.30;;
7575;SDS011;3829;50.798;4.358;2022-09-03T10:01:31;6.30;;;3.80;;
7575;SDS011;3829;50.798;4.358;2022-09-03T10:03:39;5.97;;;3.70;;
7575;SDS011;3829;50.798;4.358;2022-09-03T10:06:12;11.03;;;4.23;;
7575;SDS011;3829;50.798;4.358;2022-09-03T10:09:11;6.20;;;3.90;;
7575;SDS011;3829;50.798;4.358;2022-09-03T10:11:43;5.90;;;4.40;;
7575;SDS011;3829;50.798;4.358;2022-09-03T10:17:28;5.57;;;4.03;;
7575;SDS011;3829;50.798;4.358;2022-09-03T10:20:18;4.53;;;3.40;;
7575;SDS011;3829;50.798;4.358;2022-09-03T10:25:51;5.97;;;4.13;;
7575;SDS011;3829;50.798;4.358;2022-09-03T10:28:35;6.60;;;4.03;;
7575;SDS011;3829;50.798;4.358;2022-09-03T10:39:28;6.57;;;3.47;;
7575;SDS011;3829;50.798;4.358;2022-09-03T10:42:26;6.70;;;4.00;;
7575;SDS011;3829;50.798;4.358;2022-09-03T10:48:02;5.60;;;3.90;;
7575;SDS011;3829;50.798;4.358;2022-09-03T10:50:48;6.70;;;4.10;;
7575;SDS011;3829;50.798;4.358;2022-09-03T10:53:25;5.60;;;4.00;;
7575;SDS011;3829;50.798;4.358;2022-09-03T10:56:21;3.90;;;3.50;;
7575;SDS011;3829;50.798;4.358;2022-09-03T10:59:20;4.97;;;3.80;;
7575;SDS011;3829;50.798;4.358;2022-09-03T11:07:47;6.33;;;3.87;;
7575;SDS011;3829;50.798;4.358;2022-09-03T11:10:29;6.50;;;3.80;;
7575;SDS011;3829;50.798;4.358;2022-09-03T11:13:07;4.20;;;3.80;;
7575;SDS011;3829;50.798;4.358;2022-09-03T11:15:37;5.23;;;3.33;;
7575;SDS011;3829;50.798;4.358;2022-09-03T11:18:29;3.50;;;3.20;;
7575;SDS011;3829;50.798;4.358;2022-09-03T11:21:00;5.60;;;3.73;;
7575;SDS011;3829;50.798;4.358;2022-09-03T11:23:30;4.87;;;3.93;;
7575;SDS011;3829;50.798;4.358;2022-09-03T11:26:03;4.23;;;3.40;;
7575;SDS011;3829;50.798;4.358;2022-09-03T11:31:20;4.77;;;3.90;;
7575;SDS011;3829;50.798;4.358;2022-09-03T11:33:54;5.13;;;3.77;;
7575;SDS011;3829;50.798;4.358;2022-09-03T11:36:29;4.13;;;3.73;;
7575;SDS011;3829;50.798;4.358;2022-09-03T11:39:00;6.50;;;4.30;;
7575;SDS011;3829;50.798;4.358;2022-09-03T11:42:01;7.23;;;4.13;;
7575;SDS011;3829;50.798;4.358;2022-09-03T11:44:39;6.90;;;4.10;;
7575;SDS011;3829;50.798;4.358;2022-09-03T11:47:12;4.33;;;3.87;;
7575;SDS011;3829;50.798;4.358;2022-09-03T11:49:44;4.43;;;4.03;;
7575;SDS011;3829;50.798;4.358;2022-09-03T11:52:11;6.23;;;4.07;;
7575;SDS011;3829;50.798;4.358;2022-09-03T11:54:44;4.33;;;3.87;;
7575;SDS011;3829;50.798;4.358;2022-09-03T11:57:12;4.57;;;3.50;;
7575;SDS011;3829;50.798;4.358;2022-09-03T11:59:40;5.13;;;3.30;;
7575;SDS011;3829;50.798;4.358;2022-09-03T12:05:04;6.07;;;3.77;;
7575;SDS011;3829;50.798;4.358;2022-09-03T12:13:12;4.10;;;3.70;;
7575;SDS011;3829;50.798;4.358;2022-09-03T12:19:02;4.10;;;3.70;;
7575;SDS011;3829;50.798;4.358;2022-09-03T12:21:36;4.33;;;3.63;;
7575;SDS011;3829;50.798;4.358;2022-09-03T12:24:02;3.20;;;2.70;;
7575;SDS011;3829;50.798;4.358;2022-09-03T12:26:28;3.37;;;3.07;;
7575;SDS011;3829;50.798;4.358;2022-09-03T12:28:55;3.03;;;2.83;;
7575;SDS011;3829;50.798;4.358;2022-09-03T12:31:23;4.63;;;2.37;;
7575;SDS011;3829;50.798;4.358;2022-09-03T12:34:10;2.80;;;2.30;;
7575;SDS011;3829;50.798;4.358;2022-09-03T12:36:42;3.63;;;2.17;;
7575;SDS011;3829;50.798;4.358;2022-09-03T12:39:10;3.00;;;2.23;;
7575;SDS011;3829;50.798;4.358;2022-09-03T12:41:52;5.17;;;2.30;;
7575;SDS011;3829;50.798;4.358;2022-09-03T12:44:27;3.47;;;2.10;;
7575;SDS011;3829;50.798;4.358;2022-09-03T12:46:59;4.60;;;2.07;;
7575;SDS011;3829;50.798;4.358;2022-09-03T12:49:39;4.73;;;2.13;;
7575;SDS011;3829;50.798;4.358;2022-09-03T12:54:49;3.40;;;2.07;;
7575;SDS011;3829;50.798;4.358;2022-09-03T12:57:29;3.80;;;2.20;;
7575;SDS011;3829;50.798;4.358;2022-09-03T13:00:01;2.80;;;2.10;;
7575;SDS011;3829;50.798;4.358;2022-09-03T13:02:45;3.37;;;2.47;;
7575;SDS011;3829;50.798;4.358;2022-09-03T13:05:13;2.80;;;2.27;;
7575;SDS011;3829;50.798;4.358;2022-09-03T13:07:47;4.17;;;1.90;;
7575;SDS011;3829;50.798;4.358;2022-09-03T13:10:30;5.83;;;2.07;;
7575;SDS011;3829;50.798;4.358;2022-09-03T13:12:59;2.87;;;2.10;;
7575;SDS011;3829;50.798;4.358;2022-09-03T13:15:27;3.00;;;2.13;;
7575;SDS011;3829;50.798;4.358;2022-09-03T13:18:11;2.00;;;1.87;;
7575;SDS011;3829;50.798;4.358;2022-09-03T13:26:08;2.33;;;2.00;;
7575;SDS011;3829;50.798;4.358;2022-09-03T13:31:46;4.23;;;2.00;;
7575;SDS011;3829;50.798;4.358;2022-09-03T13:39:58;3.67;;;1.80;;
7575;SDS011;3829;50.798;4.358;2022-09-03T13:42:36;1.80;;;1.70;;
7575;SDS011;3829;50.798;4.358;2022-09-03T13:48:03;3.37;;;1.93;;
7575;SDS011;3829;50.798;4.358;2022-09-03T13:51:02;2.20;;;2.00;;
7575;SDS011;3829;50.798;4.358;2022-09-03T13:56:43;2.57;;;2.37;;
7575;SDS011;3829;50.798;4.358;2022-09-03T14:01:59;3.57;;;2.43;;
7575;SDS011;3829;50.798;4.358;2022-09-03T14:07:27;5.63;;;2.43;;
7575;SDS011;3829;50.798;4.358;2022-09-03T14:10:20;2.00;;;1.90;;
7575;SDS011;3829;50.798;4.358;2022-09-03T14:12:54;4.43;;;1.80;;
7575;SDS011;3829;50.798;4.358;2022-09-03T14:15:34;1.97;;;1.70;;
7575;SDS011;3829;50.798;4.358;2022-09-03T14:18:09;4.83;;;1.80;;
7575;SDS011;3829;50.798;4.358;2022-09-03T14:20:55;1.90;;;1.80;;
7575;SDS011;3829;50.798;4.358;2022-09-03T14:29:03;2.13;;;1.93;;
7575;SDS011;3829;50.798;4.358;2022-09-03T14:31:50;2.60;;;2.23;;
7575;SDS011;3829;50.798;4.358;2022-09-03T14:34:49;2.63;;;2.20;;
7575;SDS011;3829;50.798;4.358;2022-09-03T14:40:23;3.53;;;2.10;;
7575;SDS011;3829;50.798;4.358;2022-09-03T14:52:28;1.77;;;1.57;;
7575;SDS011;3829;50.798;4.358;2022-09-03T14:55:27;3.10;;;2.00;;
7575;SDS011;3829;50.798;4.358;2022-09-03T15:06:03;5.83;;;1.90;;
7575;SDS011;3829;50.798;4.358;2022-09-03T15:09:26;2.33;;;2.10;;
7575;SDS011;3829;50.798;4.358;2022-09-03T15:20:30;2.30;;;1.90;;
7575;SDS011;3829;50.798;4.358;2022-09-03T15:23:03;3.50;;;2.20;;
7575;SDS011;3829;50.798;4.358;2022-09-03T15:43:03;6.33;;;4.00;;
7575;SDS011;3829;50.798;4.358;2022-09-03T15:53:44;5.83;;;4.00;;
7575;SDS011;3829;50.798;4.358;2022-09-03T16:01:39;8.17;;;4.90;;
7575;SDS011;3829;50.798;4.358;2022-09-03T16:06:55;8.47;;;5.00;;
7575;SDS011;3829;50.798;4.358;2022-09-03T16:15:29;5.30;;;4.00;;
7575;SDS011;3829;50.798;4.358;2022-09-03T16:18:29;7.70;;;4.17;;
7575;SDS011;3829;50.798;4.358;2022-09-03T16:29:16;5.80;;;5.00;;
7575;SDS011;3829;50.798;4.358;2022-09-03T16:31:48;5.70;;;4.87;;
7575;SDS011;3829;50.798;4.358;2022-09-03T16:34:36;5.03;;;4.40;;
7575;SDS011;3829;50.798;4.358;2022-09-03T16:37:16;5.80;;;4.37;;
7575;SDS011;3829;50.798;4.358;2022-09-03T16:42:49;6.53;;;4.60;;
7575;SDS011;3829;50.798;4.358;2022-09-03T16:45:52;6.57;;;4.60;;
7575;SDS011;3829;50.798;4.358;2022-09-03T16:51:31;5.70;;;4.43;;
7575;SDS011;3829;50.798;4.358;2022-09-03T16:54:19;10.37;;;4.67;;
7575;SDS011;3829;50.798;4.358;2022-09-03T17:00:10;6.73;;;4.10;;
7575;SDS011;3829;50.798;4.358;2022-09-03T17:10:47;7.10;;;5.00;;
7575;SDS011;3829;50.798;4.358;2022-09-03T17:24:18;8.37;;;5.63;;
7575;SDS011;3829;50.798;4.358;2022-09-03T17:32:44;12.27;;;6.57;;
7575;SDS011;3829;50.798;4.358;2022-09-03T17:38:04;8.53;;;6.13;;
7575;SDS011;3829;50.798;4.358;2022-09-03T17:44:01;9.67;;;7.10;;
7575;SDS011;3829;50.798;4.358;2022-09-03T17:48:52;9.03;;;6.53;;
7575;SDS011;3829;50.798;4.358;2022-09-03T17:57:21;8.40;;;6.90;;
7575;SDS011;3829;50.798;4.358;2022-09-03T17:59:59;10.57;;;7.50;;
7575;SDS011;3829;50.798;4.358;2022-09-03T18:02:34;8.73;;;6.93;;
7575;SDS011;3829;50.798;4.358;2022-09-03T18:05:07;9.00;;;6.27;;
7575;SDS011;3829;50.798;4.358;2022-09-03T18:07:54;7.40;;;6.70;;
7575;SDS011;3829;50.798;4.358;2022-09-03T18:10:26;8.13;;;7.13;;
7575;SDS011;3829;50.798;4.358;2022-09-03T18:16:05;10.20;;;7.67;;
7575;SDS011;3829;50.798;4.358;2022-09-03T18:18:41;10.73;;;8.43;;
7575;SDS011;3829;50.798;4.358;2022-09-03T18:21:16;9.53;;;8.53;;
7575;SDS011;3829;50.798;4.358;2022-09-03T18:24:22;10.57;;;7.13;;
7575;SDS011;3829;50.798;4.358;2022-09-03T18:27:26;7.07;;;5.87;;
7575;SDS011;3829;50.798;4.358;2022-09-03T18:30:22;8.40;;;5.50;;
7575;SDS011;3829;50.798;4.358;2022-09-03T18:33:07;5.80;;;5.20;;
7575;SDS011;3829;50.798;4.358;2022-09-03T18:35:51;5.83;;;4.90;;
7575;SDS011;3829;50.798;4.358;2022-09-03T18:38:38;5.73;;;5.00;;
7575;SDS011;3829;50.798;4.358;2022-09-03T18:41:30;4.60;;;4.20;;
7575;SDS011;3829;50.798;4.358;2022-09-03T18:57:03;6.87;;;5.03;;
7575;SDS011;3829;50.798;4.358;2022-09-03T19:00:10;6.20;;;4.70;;
7575;SDS011;3829;50.798;4.358;2022-09-03T19:12:11;4.60;;;3.10;;
7575;SDS011;3829;50.798;4.358;2022-09-03T19:15:24;5.27;;;2.50;;
7575;SDS011;3829;50.798;4.358;2022-09-03T19:21:43;5.60;;;2.97;;
7575;SDS011;3829;50.798;4.358;2022-09-03T19:24:31;5.00;;;3.07;;
7575;SDS011;3829;50.798;4.358;2022-09-03T19:30:28;3.23;;;2.93;;
7575;SDS011;3829;50.798;4.358;2022-09-03T19:43:00;5.30;;;2.93;;
7575;SDS011;3829;50.798;4.358;2022-09-03T19:48:47;5.53;;;3.40;;
7575;SDS011;3829;50.798;4.358;2022-09-03T19:54:40;4.67;;;3.50;;
7575;SDS011;3829;50.798;4.358;2022-09-03T19:57:24;4.10;;;3.20;;
7575;SDS011;3829;50.798;4.358;2022-09-03T20:00:11;4.47;;;3.50;;
7575;SDS011;3829;50.798;4.358;2022-09-03T20:02:56;7.30;;;3.60;;
7575;SDS011;3829;50.798;4.358;2022-09-03T20:05:41;7.33;;;3.53;;
7575;SDS011;3829;50.798;4.358;2022-09-03T20:08:26;5.20;;;3.83;;
7575;SDS011;3829;50.798;4.358;2022-09-03T20:11:19;5.03;;;3.77;;
7575;SDS011;3829;50.798;4.358;2022-09-03T20:13:46;5.90;;;3.87;;
7575;SDS011;3829;50.798;4.358;2022-09-03T20:22:28;5.17;;;4.13;;
7575;SDS011;3829;50.798;4.358;2022-09-03T20:30:34;5.17;;;3.93;;
7575;SDS011;3829;50.798;4.358;2022-09-03T20:41:46;5.57;;;4.07;;
7575;SDS011;3829;50.798;4.358;2022-09-03T20:44:43;5.20;;;4.37;;
7575;SDS011;3829;50.798;4.358;2022-09-03T20:52:55;4.60;;;4.10;;
7575;SDS011;3829;50.798;4.358;2022-09-03T20:55:35;4.50;;;3.87;;
7575;SDS011;3829;50.798;4.358;2022-09-03T21:00:43;6.20;;;4.60;;
7575;SDS011;3829;50.798;4.358;2022-09-03T21:03:17;8.23;;;4.73;;
7575;SDS011;3829;50.798;4.358;2022-09-03T21:08:48;4.67;;;4.00;;
7575;SDS011;3829;50.798;4.358;2022-09-03T21:14:12;6.80;;;4.53;;
7575;SDS011;3829;50.798;4.358;2022-09-03T21:19:37;6.27;;;4.33;;
7575;SDS011;3829;50.798;4.358;2022-09-03T21:27:38;6.07;;;4.20;;
7575;SDS011;3829;50.798;4.358;2022-09-03T21:30:08;5.27;;;4.30;;
7575;SDS011;3829;50.798;4.358;2022-09-03T21:32:39;5.13;;;4.27;;
7575;SDS011;3829;50.798;4.358;2022-09-03T21:35:18;5.07;;;4.67;;
7575;SDS011;3829;50.798;4.358;2022-09-03T21:38:04;5.63;;;4.27;;
7575;SDS011;3829;50.798;4.358;2022-09-03T21:40:32;6.17;;;4.37;;
7575;SDS011;3829;50.798;4.358;2022-09-03T21:43:13;6.17;;;4.60;;
7575;SDS011;3829;50.798;4.358;2022-09-03T21:48:29;5.70;;;4.37;;